createdAt,value
2023-01-12T00:02:26.439Z,1.45
2023-01-12T00:04:53.199Z,1.40
2023-01-12T00:07:20.528Z,2.00
2023-01-12T00:12:14.358Z,1.85
2023-01-12T00:14:41.135Z,1.48
2023-01-12T00:17:09.097Z,1.23
2023-01-12T00:19:38.625Z,1.75
2023-01-12T00:22:11.441Z,1.23
2023-01-12T00:24:40.647Z,1.58
2023-01-12T00:27:12.928Z,1.30
2023-01-12T00:29:40.066Z,1.90
2023-01-12T00:32:08.040Z,2.00
2023-01-12T00:34:34.799Z,1.85
2023-01-12T00:37:01.699Z,1.63
2023-01-12T00:39:28.603Z,2.33
2023-01-12T00:42:14.195Z,0.98
2023-01-12T00:44:59.349Z,1.50
2023-01-12T00:47:26.386Z,1.42
2023-01-12T00:49:53.163Z,1.92
2023-01-12T00:52:30.320Z,2.15
2023-01-12T00:54:58.985Z,1.42
2023-01-12T00:57:25.960Z,1.52
2023-01-12T00:59:55.186Z,1.60
2023-01-12T01:02:22.797Z,1.73
2023-01-12T01:04:50.261Z,2.30
2023-01-12T01:07:18.222Z,1.45
2023-01-12T01:09:45.063Z,1.42
2023-01-12T01:12:11.873Z,1.58
2023-01-12T01:14:38.774Z,1.45
2023-01-12T01:17:05.800Z,1.48
2023-01-12T01:19:32.665Z,1.75
2023-01-12T01:21:59.504Z,1.48
2023-01-12T01:24:26.425Z,1.52
2023-01-12T01:26:53.208Z,1.75
2023-01-12T01:29:20.063Z,1.45
2023-01-12T01:31:49.531Z,1.63
2023-01-12T01:34:16.380Z,1.42
2023-01-12T01:36:43.190Z,1.50
2023-01-12T01:39:10.105Z,1.60
2023-01-12T01:41:37.075Z,2.00
2023-01-12T01:44:06.003Z,1.35
2023-01-12T01:46:50.225Z,1.17
2023-01-12T01:49:29.884Z,1.50
2023-01-12T01:52:06.865Z,1.48
2023-01-12T01:54:38.009Z,1.60
2023-01-12T01:57:06.532Z,1.80
2023-01-12T01:59:36.166Z,1.73
2023-01-12T02:02:16.899Z,1.90
2023-01-12T02:04:44.382Z,1.60
2023-01-12T02:09:38.687Z,2.45
2023-01-12T02:12:25.607Z,1.95
2023-01-12T02:15:11.537Z,2.05
2023-01-12T02:17:47.178Z,2.15
2023-01-12T02:20:29.084Z,1.58
2023-01-12T02:23:10.164Z,1.95
2023-01-12T02:26:01.596Z,2.03
2023-01-12T02:28:36.764Z,1.65
2023-01-12T02:31:17.235Z,2.60
2023-01-12T02:33:56.943Z,2.20
2023-01-12T02:36:40.258Z,1.45
2023-01-12T02:39:26.520Z,1.63
2023-01-12T02:42:35.390Z,1.93
2023-01-12T02:45:10.654Z,1.52
2023-01-12T02:48:02.725Z,1.52
2023-01-12T02:51:06.577Z,2.08
2023-01-12T02:53:53.297Z,2.20
2023-01-12T02:56:27.753Z,2.28
2023-01-12T02:58:59.059Z,2.30
2023-01-12T03:01:28.502Z,2.13
2023-01-12T03:04:01.097Z,1.63
2023-01-12T03:06:45.575Z,2.60
2023-01-12T03:09:15.967Z,2.00
2023-01-12T03:11:45.214Z,1.95
2023-01-12T03:14:15.499Z,2.20
2023-01-12T03:16:42.930Z,2.10
2023-01-12T03:19:25.758Z,2.08
2023-01-12T03:21:59.434Z,2.13
2023-01-12T03:24:29.552Z,2.00
2023-01-12T03:27:06.041Z,1.83
2023-01-12T03:29:44.085Z,2.13
2023-01-12T03:32:11.357Z,2.05
2023-01-12T03:34:39.111Z,2.13
2023-01-12T03:37:17.084Z,1.65
2023-01-12T03:40:22.868Z,1.67
2023-01-12T03:43:04.005Z,1.57
2023-01-12T03:45:42.246Z,1.77
2023-01-12T03:48:16.186Z,2.00
2023-01-12T03:50:49.811Z,2.22
2023-01-12T03:53:21.093Z,1.73
2023-01-12T03:55:50.085Z,2.08
2023-01-12T03:58:18.190Z,1.33
2023-01-12T04:00:45.009Z,2.03
2023-01-12T04:03:14.336Z,2.30
2023-01-12T04:05:42.347Z,1.27
2023-01-12T04:08:11.967Z,1.80
2023-01-12T04:10:38.773Z,2.33
2023-01-12T04:13:05.546Z,1.88
2023-01-12T04:15:36.148Z,1.65
2023-01-12T04:18:02.939Z,1.95
2023-01-12T04:20:29.752Z,1.88
2023-01-12T04:22:56.564Z,1.60
2023-01-12T04:25:23.480Z,1.27
2023-01-12T04:27:53.449Z,1.30
2023-01-12T04:30:23.412Z,1.73
2023-01-12T04:32:51.172Z,1.38
2023-01-12T04:35:18.112Z,1.38
2023-01-12T04:37:45.575Z,1.38
2023-01-12T04:43:08.280Z,1.73
2023-01-12T04:45:40.582Z,1.38
2023-01-12T04:48:08.897Z,1.77
2023-01-12T04:50:36.199Z,1.80
2023-01-12T04:53:04.973Z,1.20
2023-01-12T04:55:32.648Z,1.67
2023-01-12T04:57:59.420Z,1.30
2023-01-12T05:00:26.269Z,1.20
2023-01-12T05:02:59.282Z,1.58
2023-01-12T05:05:26.950Z,1.65
2023-01-12T05:08:12.388Z,1.10
2023-01-12T05:10:39.389Z,1.45
2023-01-12T05:13:06.193Z,1.15
2023-01-12T05:15:32.971Z,1.25
2023-01-12T05:17:59.764Z,1.35
2023-01-12T05:20:26.553Z,1.10
2023-01-12T05:22:54.846Z,1.20
2023-01-12T05:25:21.601Z,0.95
2023-01-12T05:27:48.391Z,1.17
2023-01-12T05:30:15.587Z,1.10
2023-01-12T05:32:42.404Z,1.08
2023-01-12T05:35:09.436Z,1.52
2023-01-12T05:37:36.183Z,1.50
2023-01-12T05:40:03.183Z,1.10
2023-01-12T05:42:48.793Z,1.00
2023-01-12T05:45:15.639Z,1.15
2023-01-12T05:47:42.411Z,1.35
2023-01-12T05:50:09.749Z,1.10
2023-01-12T05:52:36.542Z,1.70
2023-01-12T05:55:04.541Z,1.20
2023-01-12T05:57:31.839Z,0.93
2023-01-12T05:59:58.625Z,1.10
2023-01-12T06:02:25.600Z,0.95
2023-01-12T06:04:52.739Z,1.08
2023-01-12T06:07:19.652Z,1.25
2023-01-12T06:09:46.642Z,1.00
2023-01-12T06:12:31.786Z,1.15
2023-01-12T06:14:58.596Z,1.00
2023-01-12T06:17:25.387Z,0.80
2023-01-12T06:19:53.270Z,0.65
2023-01-12T06:22:20.104Z,0.80
2023-01-12T06:24:49.050Z,0.80
2023-01-12T06:27:16.715Z,0.80
2023-01-12T06:29:43.527Z,0.80
2023-01-12T06:32:10.391Z,0.70
2023-01-12T06:34:37.673Z,0.80
2023-01-12T06:37:07.100Z,0.75
2023-01-12T06:39:34.349Z,0.70
2023-01-12T06:42:19.709Z,0.90
2023-01-12T06:44:48.780Z,0.85
2023-01-12T06:47:15.805Z,0.95
2023-01-12T06:49:42.560Z,0.70
2023-01-12T06:52:09.435Z,0.70
2023-01-12T06:54:36.273Z,0.80
2023-01-12T06:57:03.089Z,0.85
2023-01-12T06:59:29.883Z,0.80
2023-01-12T07:01:56.698Z,1.13
2023-01-12T07:04:23.534Z,0.80
2023-01-12T07:06:54.695Z,0.90
2023-01-12T07:09:21.668Z,0.63
2023-01-12T07:11:48.455Z,0.80
2023-01-12T07:14:15.204Z,1.00
2023-01-12T07:16:42.175Z,0.70
2023-01-12T07:19:08.964Z,0.70
2023-01-12T07:21:35.781Z,0.80
2023-01-12T07:24:02.708Z,0.75
2023-01-12T07:26:29.500Z,0.70
2023-01-12T07:28:56.332Z,1.10
2023-01-12T07:31:23.168Z,0.70
2023-01-12T07:33:53.689Z,0.95
2023-01-12T07:36:21.339Z,0.65
2023-01-12T07:38:48.272Z,0.73
2023-01-12T07:41:33.856Z,0.68
2023-01-12T07:44:08.576Z,0.73
2023-01-12T07:46:35.722Z,0.82
2023-01-12T07:49:02.700Z,0.80
2023-01-12T07:51:30.111Z,0.90
2023-01-12T07:53:57.019Z,1.20
2023-01-12T07:56:23.767Z,0.90
2023-01-12T07:58:50.592Z,0.70
2023-01-12T08:01:17.479Z,0.88
2023-01-12T08:03:44.582Z,0.90
2023-01-12T08:06:11.419Z,1.00
2023-01-12T08:08:38.258Z,0.95
2023-01-12T08:11:07.532Z,0.98
2023-01-12T08:13:34.881Z,0.90
2023-01-12T08:16:06.952Z,0.90
2023-01-12T08:18:41.854Z,0.80
2023-01-12T08:21:12.990Z,1.48
2023-01-12T08:23:45.079Z,1.00
2023-01-12T08:26:20.633Z,0.80
2023-01-12T08:28:52.652Z,0.80
2023-01-12T08:31:22.240Z,0.93
2023-01-12T08:33:49.077Z,1.08
2023-01-12T08:36:17.121Z,1.17
2023-01-12T08:38:44.789Z,1.20
2023-01-12T08:41:30.292Z,1.13
2023-01-12T08:44:02.895Z,1.25
2023-01-12T08:46:38.395Z,0.70
2023-01-12T08:49:10.202Z,0.90
2023-01-12T08:51:39.353Z,0.85
2023-01-12T08:54:07.733Z,1.27
2023-01-12T08:56:34.955Z,0.93
2023-01-12T08:59:02.324Z,1.15
2023-01-12T09:01:29.304Z,1.27
2023-01-12T09:03:57.458Z,1.00
2023-01-12T09:06:30.818Z,0.90
2023-01-12T09:09:00.154Z,1.45
2023-01-12T09:11:28.861Z,1.13
2023-01-12T09:13:58.394Z,1.00
2023-01-12T09:16:27.268Z,1.30
2023-01-12T09:18:54.276Z,1.05
2023-01-12T09:21:23.496Z,0.93
2023-01-12T09:23:51.069Z,1.10
2023-01-12T09:26:20.351Z,1.08
2023-01-12T09:28:47.792Z,0.98
2023-01-12T09:33:46.659Z,1.08
2023-01-12T09:36:16.482Z,1.00
2023-01-12T09:38:44.460Z,0.98
2023-01-12T09:41:16.945Z,0.70
2023-01-12T09:44:02.720Z,0.80
2023-01-12T09:46:55.060Z,0.90
2023-01-12T09:49:26.675Z,0.80
2023-01-12T09:52:29.957Z,1.00
2023-01-12T09:54:57.258Z,0.90
2023-01-12T09:57:48.189Z,0.80
2023-01-12T10:00:17.172Z,0.82
2023-01-12T10:02:50.835Z,1.00
2023-01-12T10:05:52.198Z,0.90
2023-01-12T10:08:25.600Z,0.70
2023-01-12T10:11:14.033Z,1.00
2023-01-12T10:13:46.894Z,0.82
2023-01-12T10:16:27.275Z,1.00
2023-01-12T10:18:58.800Z,0.90
2023-01-12T10:21:28.547Z,0.70
2023-01-12T10:23:56.067Z,0.80
2023-01-12T10:26:25.317Z,0.90
2023-01-12T10:28:54.948Z,0.98
2023-01-12T10:31:26.288Z,0.70
2023-01-12T10:34:11.712Z,0.80
2023-01-12T10:36:49.935Z,0.70
2023-01-12T10:39:42.604Z,0.85
2023-01-12T10:42:43.804Z,1.10
2023-01-12T10:45:22.669Z,0.98
2023-01-12T10:47:53.449Z,1.02
2023-01-12T10:50:27.339Z,1.05
2023-01-12T10:52:58.321Z,0.70
2023-01-12T10:55:30.324Z,0.77
2023-01-12T10:57:57.731Z,0.80
2023-01-12T11:00:27.090Z,1.00
2023-01-12T11:02:55.439Z,0.80
2023-01-12T11:05:38.529Z,0.70
2023-01-12T11:08:26.991Z,0.80
2023-01-12T11:10:54.056Z,0.77
2023-01-12T11:13:26.566Z,0.98
2023-01-12T11:16:05.358Z,1.00
2023-01-12T11:18:45.728Z,1.08
2023-01-12T11:21:19.293Z,0.82
2023-01-12T11:24:02.761Z,0.80
2023-01-12T11:26:39.324Z,0.90
2023-01-12T11:29:31.870Z,0.90
2023-01-12T11:32:32.126Z,0.90
2023-01-12T11:35:05.260Z,0.68
2023-01-12T11:37:38.180Z,0.95
2023-01-12T11:40:25.712Z,0.77
2023-01-12T11:43:12.451Z,1.13
2023-01-12T11:46:12.431Z,1.00
2023-01-12T11:48:59.590Z,0.70
2023-01-12T11:53:53.735Z,0.77
2023-01-12T11:56:36.943Z,0.70
2023-01-12T11:59:40.280Z,0.70
2023-01-12T12:02:26.463Z,1.15
2023-01-12T12:04:53.282Z,0.82
2023-01-12T12:07:37.171Z,0.80
2023-01-12T12:10:25.264Z,1.15
2023-01-12T12:13:06.896Z,0.70
2023-01-12T12:16:03.342Z,1.00
2023-01-12T12:18:30.170Z,1.10
2023-01-12T12:21:25.966Z,0.70
2023-01-12T12:24:29.289Z,0.98
2023-01-12T12:27:24.371Z,1.13
2023-01-12T12:30:28.241Z,0.95
2023-01-12T12:33:16.299Z,0.90
2023-01-12T12:36:05.178Z,0.80
2023-01-12T12:39:10.060Z,1.13
2023-01-12T12:42:14.244Z,0.70
2023-01-12T12:45:25.420Z,0.70
2023-01-12T12:48:25.418Z,1.10
2023-01-12T12:51:08.805Z,0.80
2023-01-12T12:53:42.096Z,0.90
2023-01-12T12:56:11.288Z,0.80
2023-01-12T12:58:48.071Z,0.95
2023-01-12T13:01:21.168Z,1.00
2023-01-12T13:03:51.820Z,0.60
2023-01-12T13:06:21.613Z,0.70
2023-01-12T13:08:50.954Z,0.70
2023-01-12T13:11:18.641Z,0.88
2023-01-12T13:14:00.433Z,0.77
2023-01-12T13:16:29.870Z,0.80
2023-01-12T13:18:56.649Z,0.85
2023-01-12T13:21:31.239Z,1.00
2023-01-12T13:24:10.169Z,0.70
2023-01-12T13:26:40.184Z,1.00
2023-01-12T13:29:31.740Z,0.80
2023-01-12T13:32:19.657Z,0.70
2023-01-12T13:34:46.539Z,0.80
2023-01-12T13:37:27.203Z,0.90
2023-01-12T13:40:21.105Z,0.70
2023-01-12T13:43:08.587Z,0.98
2023-01-12T13:45:36.728Z,1.10
2023-01-12T13:48:06.900Z,0.77
2023-01-12T13:50:35.389Z,0.80
2023-01-12T13:53:03.460Z,0.73
2023-01-12T13:55:32.923Z,0.82
2023-01-12T13:58:05.522Z,0.80
2023-01-12T14:00:33.953Z,0.80
2023-01-12T14:03:03.505Z,1.10
2023-01-12T14:05:59.142Z,0.70
2023-01-12T14:08:59.445Z,0.80
2023-01-12T14:11:47.066Z,0.70
2023-01-12T14:15:09.630Z,0.63
2023-01-12T14:17:57.734Z,0.65
2023-01-12T14:20:31.045Z,0.70
2023-01-12T14:23:15.068Z,0.80
2023-01-12T14:25:42.976Z,0.77
2023-01-12T14:28:22.427Z,0.77
2023-01-12T14:30:53.120Z,0.70
2023-01-12T14:33:22.880Z,0.85
2023-01-12T14:35:54.732Z,0.70
2023-01-12T14:38:25.333Z,0.98
2023-01-12T14:41:07.046Z,0.75
2023-01-12T14:43:54.156Z,0.73
2023-01-12T14:48:58.127Z,0.80
2023-01-12T14:51:38.641Z,0.90
2023-01-12T14:54:08.481Z,0.70
2023-01-12T14:56:43.889Z,0.70
2023-01-12T14:59:23.652Z,0.80
2023-01-12T15:01:52.599Z,0.80
2023-01-12T15:04:23.023Z,0.90
2023-01-12T15:07:02.165Z,0.80
2023-01-12T15:09:32.343Z,0.85
2023-01-12T15:11:59.315Z,0.88
2023-01-12T15:14:29.156Z,0.85
2023-01-12T15:17:14.813Z,0.65
2023-01-12T15:20:13.823Z,0.90
2023-01-12T15:22:59.386Z,1.05
2023-01-12T15:25:38.403Z,0.90
2023-01-12T15:28:07.228Z,0.80
2023-01-12T15:30:38.680Z,0.88
2023-01-12T15:33:06.163Z,0.70
2023-01-12T15:38:00.880Z,0.90
2023-01-12T15:40:28.226Z,1.15
2023-01-12T15:42:55.181Z,1.00
2023-01-12T15:45:37.258Z,0.90
2023-01-12T15:48:04.746Z,0.80
2023-01-12T15:53:01.027Z,0.93
2023-01-12T15:55:31.154Z,0.90
2023-01-12T15:57:58.015Z,0.98
2023-01-12T16:00:25.053Z,0.80
2023-01-12T16:02:52.641Z,0.90
2023-01-12T16:05:22.717Z,0.85
2023-01-12T16:07:49.845Z,0.77
2023-01-12T16:10:17.929Z,1.10
2023-01-12T16:12:47.677Z,1.10
2023-01-12T16:15:20.585Z,0.75
2023-01-12T16:17:48.622Z,0.77
2023-01-12T16:20:17.402Z,1.00
2023-01-12T16:22:45.339Z,0.85
2023-01-12T16:25:13.227Z,0.95
2023-01-12T16:27:40.231Z,0.85
2023-01-12T16:30:11.925Z,0.77
2023-01-12T16:32:38.896Z,0.70
2023-01-12T16:35:05.755Z,0.73
2023-01-12T16:37:33.302Z,0.95
2023-01-12T16:40:00.924Z,0.70
2023-01-12T16:42:28.085Z,0.80
2023-01-12T16:44:55.307Z,0.90
2023-01-12T16:47:22.571Z,0.98
2023-01-12T16:49:50.971Z,0.90
2023-01-12T16:52:20.822Z,0.80
2023-01-12T16:54:47.669Z,0.80
2023-01-12T16:57:16.500Z,0.70
2023-01-12T16:59:43.784Z,0.80
2023-01-12T17:02:14.150Z,0.82
2023-01-12T17:04:42.247Z,0.70
2023-01-12T17:07:09.513Z,0.68
2023-01-12T17:09:38.245Z,0.65
2023-01-12T17:12:05.771Z,0.90
2023-01-12T17:17:04.981Z,0.93
2023-01-12T17:19:33.874Z,0.77
2023-01-12T17:22:02.151Z,0.77
2023-01-12T17:24:30.908Z,0.70
2023-01-12T17:26:58.405Z,0.70
2023-01-12T17:29:26.825Z,1.00
2023-01-12T17:31:56.743Z,0.60
2023-01-12T17:34:23.740Z,0.98
2023-01-12T17:36:50.702Z,0.90
2023-01-12T17:39:17.607Z,0.80
2023-01-12T17:42:03.227Z,1.00
2023-01-12T17:44:30.631Z,0.90
2023-01-12T17:46:57.727Z,0.73
2023-01-12T17:49:24.592Z,0.80
2023-01-12T17:51:51.712Z,0.80
2023-01-12T17:54:18.527Z,0.73
2023-01-12T17:56:45.727Z,1.05
2023-01-12T17:59:18.562Z,0.90
2023-01-12T18:01:46.610Z,0.80
2023-01-12T18:04:13.853Z,1.00
2023-01-12T18:06:40.792Z,0.80
2023-01-12T18:09:09.145Z,0.70
2023-01-12T18:11:36.473Z,0.70
2023-01-12T18:14:03.400Z,0.70
2023-01-12T18:16:30.229Z,0.70
2023-01-12T18:18:57.094Z,0.80
2023-01-12T18:21:26.215Z,0.77
2023-01-12T18:23:53.975Z,0.90
2023-01-12T18:26:25.052Z,0.80
2023-01-12T18:28:53.721Z,0.80
2023-01-12T18:31:23.611Z,0.80
2023-01-12T18:33:54.070Z,0.70
2023-01-12T18:36:24.176Z,0.90
2023-01-12T18:38:52.295Z,0.98
2023-01-12T18:41:39.309Z,0.90
2023-01-12T18:46:53.189Z,1.00
2023-01-12T18:49:24.567Z,0.90
2023-01-12T18:52:10.523Z,0.70
2023-01-12T18:54:42.452Z,0.70
2023-01-12T18:57:09.267Z,1.00
2023-01-12T18:59:36.051Z,0.93
2023-01-12T19:02:03.183Z,0.80
2023-01-12T19:04:49.035Z,1.10
2023-01-12T19:07:33.646Z,1.05
2023-01-12T19:10:00.771Z,0.95
2023-01-12T19:12:30.597Z,0.90
2023-01-12T19:15:16.299Z,0.80
2023-01-12T19:17:43.122Z,0.70
2023-01-12T19:20:16.887Z,0.70
2023-01-12T19:23:02.242Z,0.80
2023-01-12T19:25:48.180Z,0.80
2023-01-12T19:28:32.642Z,0.98
2023-01-12T19:31:02.110Z,0.98
2023-01-12T19:33:29.462Z,0.68
2023-01-12T19:35:56.312Z,0.82
2023-01-12T19:38:23.361Z,0.88
2023-01-12T19:40:54.411Z,0.90
2023-01-12T19:43:26.016Z,0.80
2023-01-12T19:45:59.278Z,0.75
2023-01-12T19:48:27.248Z,0.77
2023-01-12T19:50:54.390Z,0.82
2023-01-12T19:53:28.500Z,1.00
2023-01-12T19:55:55.299Z,0.95
2023-01-12T19:58:22.312Z,1.00
2023-01-12T20:00:49.812Z,0.80
2023-01-12T20:05:47.396Z,0.90
2023-01-12T20:08:16.703Z,0.63
2023-01-12T20:10:43.616Z,0.80
2023-01-12T20:13:13.196Z,0.82
2023-01-12T20:15:43.332Z,0.75
2023-01-12T20:18:10.425Z,0.82
2023-01-12T20:20:39.320Z,0.93
2023-01-12T20:23:06.741Z,0.85
2023-01-12T20:25:33.795Z,0.60
2023-01-12T20:28:00.671Z,0.80
2023-01-12T20:30:39.060Z,0.70
2023-01-12T20:33:06.652Z,0.80
2023-01-12T20:35:34.889Z,0.68
2023-01-12T20:38:03.637Z,1.00
2023-01-12T20:40:30.657Z,0.80
2023-01-12T20:42:58.121Z,0.75
2023-01-12T20:47:51.619Z,0.70
2023-01-12T20:50:18.977Z,0.80
2023-01-12T20:52:47.946Z,0.70
2023-01-12T20:55:15.317Z,0.63
2023-01-12T20:57:42.217Z,0.65
2023-01-12T21:00:10.411Z,0.60
2023-01-12T21:02:37.317Z,0.75
2023-01-12T21:05:04.962Z,0.85
2023-01-12T21:07:31.829Z,0.80
2023-01-12T21:09:58.702Z,0.65
2023-01-12T21:12:27.479Z,0.80
2023-01-12T21:14:57.740Z,0.75
2023-01-12T21:17:24.547Z,0.63
2023-01-12T21:19:51.446Z,0.68
2023-01-12T21:22:20.539Z,0.73
2023-01-12T21:24:47.689Z,0.70
2023-01-12T21:27:16.486Z,0.82
2023-01-12T21:29:43.284Z,0.88
2023-01-12T21:32:10.149Z,0.60
2023-01-12T21:34:36.949Z,0.80
2023-01-12T21:37:03.753Z,0.60
2023-01-12T21:39:30.577Z,0.63
2023-01-12T21:42:16.014Z,0.60
2023-01-12T21:44:42.927Z,0.70
2023-01-12T21:47:09.784Z,0.93
2023-01-12T21:49:36.570Z,0.88
2023-01-12T21:52:03.467Z,0.60
2023-01-12T21:54:31.083Z,0.70
2023-01-12T21:56:58.844Z,0.80
2023-01-12T21:59:25.659Z,0.80
2023-01-12T22:01:52.617Z,0.60
2023-01-12T22:04:19.640Z,0.73
2023-01-12T22:06:46.455Z,0.80
2023-01-12T22:09:13.248Z,0.80
2023-01-12T22:11:40.030Z,0.80
2023-01-12T22:14:06.795Z,0.60
2023-01-12T22:16:33.633Z,0.70
2023-01-12T22:19:00.514Z,0.70
2023-01-12T22:21:27.398Z,0.80
2023-01-12T22:23:54.181Z,0.70
2023-01-12T22:26:21.049Z,0.73
2023-01-12T22:28:48.938Z,0.70
2023-01-12T22:31:25.420Z,0.85
2023-01-12T22:34:00.578Z,0.80
2023-01-12T22:36:27.401Z,0.70
2023-01-12T22:38:54.842Z,0.80
2023-01-12T22:41:22.499Z,0.70
2023-01-12T22:43:49.981Z,0.80
2023-01-12T22:48:57.818Z,0.70
2023-01-12T22:51:26.132Z,0.73
2023-01-12T22:53:56.117Z,0.80
2023-01-12T22:56:22.987Z,0.60
2023-01-12T22:58:52.576Z,0.75
2023-01-12T23:01:21.113Z,0.90
2023-01-12T23:03:49.764Z,0.70
2023-01-12T23:06:17.625Z,0.60
2023-01-12T23:08:45.561Z,0.60
2023-01-12T23:11:15.375Z,0.70
2023-01-12T23:13:43.911Z,0.70
2023-01-12T23:16:13.531Z,0.70
2023-01-12T23:18:42.134Z,0.60
2023-01-12T23:21:20.009Z,0.70
2023-01-12T23:23:52.603Z,0.60
2023-01-12T23:26:25.809Z,0.73
2023-01-12T23:28:56.318Z,0.88
2023-01-12T23:31:30.138Z,0.57
2023-01-12T23:33:57.919Z,0.70
2023-01-12T23:36:27.444Z,0.70
2023-01-12T23:38:55.769Z,0.90
2023-01-12T23:41:24.881Z,0.70
2023-01-12T23:43:52.734Z,0.60
2023-01-12T23:46:23.430Z,0.65
2023-01-12T23:48:51.825Z,0.70
2023-01-12T23:51:19.068Z,0.70
2023-01-12T23:53:46.572Z,0.60
2023-01-12T23:58:42.299Z,0.75
